sensor_id;sensor_type;location;lat;lon;timestamp;pressure;altitude;pressure_sealevel;temperature;humidity
29461;BME280;16428;47.836;35.106;2023-04-25T00:01:47;100820.63;;;13.61;100.00
29461;BME280;16428;47.836;35.106;2023-04-25T00:04:14;100822.88;;;13.79;100.00
29461;BME280;16428;47.836;35.106;2023-04-25T00:06:43;100820.44;;;13.63;100.00
29461;BME280;16428;47.836;35.106;2023-04-25T00:09:10;100817.84;;;13.76;100.00
29461;BME280;16428;47.836;35.106;2023-04-25T00:11:40;100821.56;;;13.75;100.00
29461;BME280;16428;47.836;35.106;2023-04-25T00:14:07;100816.19;;;13.75;100.00
29461;BME280;16428;47.836;35.106;2023-04-25T00:16:35;100816.59;;;13.72;100.00
29461;BME280;16428;47.836;35.106;2023-04-25T00:19:03;100815.41;;;13.60;100.00
29461;BME280;16428;47.836;35.106;2023-04-25T00:21:30;100808.56;;;13.57;100.00
29461;BME280;16428;47.836;35.106;2023-04-25T00:23:59;100820.13;;;13.51;100.00
29461;BME280;16428;47.836;35.106;2023-04-25T00:26:27;100813.25;;;13.49;100.00
29461;BME280;16428;47.836;35.106;2023-04-25T00:28:54;100819.03;;;13.46;100.00
29461;BME280;16428;47.836;35.106;2023-04-25T00:31:22;100824.44;;;13.46;100.00
29461;BME280;16428;47.836;35.106;2023-04-25T00:33:50;100823.59;;;13.45;100.00
29461;BME280;16428;47.836;35.106;2023-04-25T00:36:18;100819.44;;;13.43;100.00
29461;BME280;16428;47.836;35.106;2023-04-25T00:38:45;100817.31;;;13.38;100.00
29461;BME280;16428;47.836;35.106;2023-04-25T00:41:13;100813.25;;;13.49;100.00
29461;BME280;16428;47.836;35.106;2023-04-25T00:43:41;100813.59;;;13.39;100.00
29461;BME280;16428;47.836;35.106;2023-04-25T00:46:08;100815.19;;;13.33;100.00
29461;BME280;16428;47.836;35.106;2023-04-25T00:48:36;100813.28;;;13.27;100.00
29461;BME280;16428;47.836;35.106;2023-04-25T00:51:03;100804.00;;;13.36;100.00
29461;BME280;16428;47.836;35.106;2023-04-25T00:53:32;100798.50;;;13.09;100.00
29461;BME280;16428;47.836;35.106;2023-04-25T00:55:59;100796.38;;;12.83;100.00
29461;BME280;16428;47.836;35.106;2023-04-25T00:58:27;100795.91;;;12.79;100.00
29461;BME280;16428;47.836;35.106;2023-04-25T01:00:55;100792.47;;;12.71;100.00
29461;BME280;16428;47.836;35.106;2023-04-25T01:03:24;100786.47;;;12.90;100.00
29461;BME280;16428;47.836;35.106;2023-04-25T01:05:53;100792.53;;;12.92;100.00
29461;BME280;16428;47.836;35.106;2023-04-25T01:08:23;100788.00;;;12.99;100.00
29461;BME280;16428;47.836;35.106;2023-04-25T01:10:52;100784.16;;;12.87;100.00
29461;BME280;16428;47.836;35.106;2023-04-25T01:13:20;100784.06;;;12.95;100.00
29461;BME280;16428;47.836;35.106;2023-04-25T01:15:47;100775.97;;;12.95;100.00
29461;BME280;16428;47.836;35.106;2023-04-25T01:18:15;100777.00;;;12.94;100.00
29461;BME280;16428;47.836;35.106;2023-04-25T01:20:43;100783.13;;;12.88;100.00
29461;BME280;16428;47.836;35.106;2023-04-25T01:23:12;100779.72;;;12.79;100.00
29461;BME280;16428;47.836;35.106;2023-04-25T01:25:40;100774.25;;;12.73;100.00
29461;BME280;16428;47.836;35.106;2023-04-25T01:28:08;100777.78;;;12.73;100.00
29461;BME280;16428;47.836;35.106;2023-04-25T01:30:36;100776.28;;;12.71;100.00
29461;BME280;16428;47.836;35.106;2023-04-25T01:33:04;100774.75;;;12.61;100.00
29461;BME280;16428;47.836;35.106;2023-04-25T01:35:32;100770.19;;;12.62;100.00
29461;BME280;16428;47.836;35.106;2023-04-25T01:38:00;100767.22;;;12.57;100.00
29461;BME280;16428;47.836;35.106;2023-04-25T01:40:28;100767.59;;;12.54;100.00
29461;BME280;16428;47.836;35.106;2023-04-25T01:42:55;100769.66;;;12.52;100.00
29461;BME280;16428;47.836;35.106;2023-04-25T01:45:23;100763.16;;;12.46;100.00
29461;BME280;16428;47.836;35.106;2023-04-25T01:47:50;100763.69;;;12.56;100.00
29461;BME280;16428;47.836;35.106;2023-04-25T01:50:18;100759.91;;;12.51;100.00
29461;BME280;16428;47.836;35.106;2023-04-25T01:52:46;100757.47;;;12.41;100.00
29461;BME280;16428;47.836;35.106;2023-04-25T01:55:14;100753.88;;;12.49;100.00
29461;BME280;16428;47.836;35.106;2023-04-25T01:57:42;100758.25;;;12.35;100.00
29461;BME280;16428;47.836;35.106;2023-04-25T02:00:09;100756.84;;;12.39;100.00
29461;BME280;16428;47.836;35.106;2023-04-25T02:02:37;100757.03;;;12.52;100.00
29461;BME280;16428;47.836;35.106;2023-04-25T02:05:05;100764.06;;;12.53;100.00
29461;BME280;16428;47.836;35.106;2023-04-25T02:07:33;100761.38;;;12.39;100.00
29461;BME280;16428;47.836;35.106;2023-04-25T02:10:01;100757.44;;;12.20;100.00
29461;BME280;16428;47.836;35.106;2023-04-25T02:12:28;100756.47;;;12.13;100.00
29461;BME280;16428;47.836;35.106;2023-04-25T02:14:56;100759.28;;;12.05;100.00
29461;BME280;16428;47.836;35.106;2023-04-25T02:17:23;100761.31;;;12.03;100.00
29461;BME280;16428;47.836;35.106;2023-04-25T02:19:51;100752.78;;;12.14;100.00
29461;BME280;16428;47.836;35.106;2023-04-25T02:22:18;100756.97;;;12.02;100.00
29461;BME280;16428;47.836;35.106;2023-04-25T02:24:46;100757.78;;;12.02;100.00
29461;BME280;16428;47.836;35.106;2023-04-25T02:27:13;100750.25;;;12.12;100.00
29461;BME280;16428;47.836;35.106;2023-04-25T02:29:41;100752.13;;;11.97;100.00
29461;BME280;16428;47.836;35.106;2023-04-25T02:32:08;100747.56;;;11.97;100.00
29461;BME280;16428;47.836;35.106;2023-04-25T02:34:36;100746.38;;;12.00;100.00
29461;BME280;16428;47.836;35.106;2023-04-25T02:37:04;100750.06;;;11.99;100.00
29461;BME280;16428;47.836;35.106;2023-04-25T02:39:31;100752.59;;;12.01;100.00
29461;BME280;16428;47.836;35.106;2023-04-25T02:41:58;100747.19;;;12.01;100.00
29461;BME280;16428;47.836;35.106;2023-04-25T02:44:26;100748.22;;;12.00;100.00
29461;BME280;16428;47.836;35.106;2023-04-25T02:46:53;100745.72;;;12.13;100.00
29461;BME280;16428;47.836;35.106;2023-04-25T02:49:21;100741.09;;;12.07;100.00
29461;BME280;16428;47.836;35.106;2023-04-25T02:51:48;100744.63;;;12.22;100.00
29461;BME280;16428;47.836;35.106;2023-04-25T02:54:16;100749.69;;;12.31;100.00
29461;BME280;16428;47.836;35.106;2023-04-25T02:56:43;100754.31;;;12.38;100.00
29461;BME280;16428;47.836;35.106;2023-04-25T02:59:11;100747.88;;;12.53;100.00
29461;BME280;16428;47.836;35.106;2023-04-25T03:01:38;100751.69;;;12.59;100.00
29461;BME280;16428;47.836;35.106;2023-04-25T03:04:05;100748.94;;;12.52;100.00
29461;BME280;16428;47.836;35.106;2023-04-25T03:06:33;100747.88;;;12.53;100.00
29461;BME280;16428;47.836;35.106;2023-04-25T03:09:01;100749.03;;;12.44;100.00
29461;BME280;16428;47.836;35.106;2023-04-25T03:11:28;100746.88;;;12.40;100.00
29461;BME280;16428;47.836;35.106;2023-04-25T03:13:56;100742.75;;;12.37;100.00
29461;BME280;16428;47.836;35.106;2023-04-25T03:16:23;100742.94;;;12.36;100.00
29461;BME280;16428;47.836;35.106;2023-04-25T03:18:51;100748.19;;;12.44;100.00
29461;BME280;16428;47.836;35.106;2023-04-25T03:21:18;100751.22;;;12.55;100.00
29461;BME280;16428;47.836;35.106;2023-04-25T03:23:46;100753.28;;;12.53;100.00
29461;BME280;16428;47.836;35.106;2023-04-25T03:26:13;100748.34;;;12.57;100.00
29461;BME280;16428;47.836;35.106;2023-04-25T03:28:41;100753.56;;;12.58;100.00
29461;BME280;16428;47.836;35.106;2023-04-25T03:31:09;100755.47;;;12.79;100.00
29461;BME280;16428;47.836;35.106;2023-04-25T03:33:36;100755.94;;;12.83;100.00
29461;BME280;16428;47.836;35.106;2023-04-25T03:36:04;100749.44;;;12.77;100.00
29461;BME280;16428;47.836;35.106;2023-04-25T03:38:32;100749.25;;;12.79;100.00
29461;BME280;16428;47.836;35.106;2023-04-25T03:41:01;100756.94;;;12.82;100.00
29461;BME280;16428;47.836;35.106;2023-04-25T03:43:29;100746.88;;;12.90;100.00
29461;BME280;16428;47.836;35.106;2023-04-25T03:45:56;100737.88;;;12.83;100.00
29461;BME280;16428;47.836;35.106;2023-04-25T03:48:25;100753.59;;;13.01;100.00
29461;BME280;16428;47.836;35.106;2023-04-25T03:50:54;100751.00;;;13.08;100.00
29461;BME280;16428;47.836;35.106;2023-04-25T03:53:21;100749.88;;;12.81;100.00
29461;BME280;16428;47.836;35.106;2023-04-25T03:55:49;100749.16;;;12.72;100.00
29461;BME280;16428;47.836;35.106;2023-04-25T03:58:16;100746.91;;;12.76;100.00
29461;BME280;16428;47.836;35.106;2023-04-25T04:00:44;100746.09;;;12.75;100.00
29461;BME280;16428;47.836;35.106;2023-04-25T04:03:12;100746.22;;;12.88;100.00
29461;BME280;16428;47.836;35.106;2023-04-25T04:05:39;100744.50;;;12.81;100.00
29461;BME280;16428;47.836;35.106;2023-04-25T04:08:07;100742.44;;;12.83;100.00
29461;BME280;16428;47.836;35.106;2023-04-25T04:10:36;100737.50;;;12.86;100.00
29461;BME280;16428;47.836;35.106;2023-04-25T04:13:03;100743.72;;;12.87;100.00
29461;BME280;16428;47.836;35.106;2023-04-25T04:15:30;100741.28;;;12.92;100.00
29461;BME280;16428;47.836;35.106;2023-04-25T04:18:00;100734.09;;;12.99;100.00
29461;BME280;16428;47.836;35.106;2023-04-25T04:20:30;100743.63;;;13.16;100.00
29461;BME280;16428;47.836;35.106;2023-04-25T04:22:58;100737.97;;;13.11;100.00
29461;BME280;16428;47.836;35.106;2023-04-25T04:25:25;100735.38;;;13.03;100.00
29461;BME280;16428;47.836;35.106;2023-04-25T04:27:53;100739.16;;;13.23;100.00
29461;BME280;16428;47.836;35.106;2023-04-25T04:30:23;100732.16;;;13.29;100.00
29461;BME280;16428;47.836;35.106;2023-04-25T04:32:51;100734.50;;;13.38;100.00
29461;BME280;16428;47.836;35.106;2023-04-25T04:35:19;100728.94;;;13.47;100.00
29461;BME280;16428;47.836;35.106;2023-04-25T04:37:47;100730.25;;;13.51;100.00
29461;BME280;16428;47.836;35.106;2023-04-25T04:40:15;100731.91;;;13.52;100.00
29461;BME280;16428;47.836;35.106;2023-04-25T04:42:44;100733.13;;;13.49;100.00
29461;BME280;16428;47.836;35.106;2023-04-25T04:45:18;100725.22;;;13.48;100.00
29461;BME280;16428;47.836;35.106;2023-04-25T04:47:46;100731.38;;;13.63;100.00
29461;BME280;16428;47.836;35.106;2023-04-25T04:50:13;100727.41;;;13.59;100.00
29461;BME280;16428;47.836;35.106;2023-04-25T04:52:42;100729.06;;;13.60;100.00
29461;BME280;16428;47.836;35.106;2023-04-25T04:55:09;100727.91;;;13.76;100.00
29461;BME280;16428;47.836;35.106;2023-04-25T04:57:37;100730.44;;;13.77;100.00
29461;BME280;16428;47.836;35.106;2023-04-25T05:00:06;100725.78;;;13.64;100.00
29461;BME280;16428;47.836;35.106;2023-04-25T05:02:38;100735.31;;;13.88;100.00
29461;BME280;16428;47.836;35.106;2023-04-25T05:05:07;100740.06;;;13.86;100.00
29461;BME280;16428;47.836;35.106;2023-04-25T05:07:35;100742.13;;;13.84;100.00
29461;BME280;16428;47.836;35.106;2023-04-25T05:10:03;100737.00;;;13.68;100.00
29461;BME280;16428;47.836;35.106;2023-04-25T05:12:31;100742.38;;;13.89;100.00
29461;BME280;16428;47.836;35.106;2023-04-25T05:15:00;100741.00;;;14.06;100.00
29461;BME280;16428;47.836;35.106;2023-04-25T05:17:27;100732.34;;;14.18;100.00
29461;BME280;16428;47.836;35.106;2023-04-25T05:19:55;100727.34;;;14.15;100.00
29461;BME280;16428;47.836;35.106;2023-04-25T05:22:22;100734.75;;;13.99;100.00
29461;BME280;16428;47.836;35.106;2023-04-25T05:24:50;100732.47;;;14.03;100.00
29461;BME280;16428;47.836;35.106;2023-04-25T05:27:21;100730.25;;;14.13;100.00
29461;BME280;16428;47.836;35.106;2023-04-25T05:29:49;100730.44;;;14.12;100.00
29461;BME280;16428;47.836;35.106;2023-04-25T05:32:16;100724.88;;;14.20;100.00
29461;BME280;16428;47.836;35.106;2023-04-25T05:34:45;100723.59;;;14.16;100.00
29461;BME280;16428;47.836;35.106;2023-04-25T05:37:12;100719.53;;;14.33;100.00
29461;BME280;16428;47.836;35.106;2023-04-25T05:39:40;100727.84;;;14.38;100.00
29461;BME280;16428;47.836;35.106;2023-04-25T05:42:07;100730.34;;;14.39;100.00
29461;BME280;16428;47.836;35.106;2023-04-25T05:44:34;100730.22;;;14.48;100.00
29461;BME280;16428;47.836;35.106;2023-04-25T05:47:02;100732.34;;;14.59;100.00
29461;BME280;16428;47.836;35.106;2023-04-25T05:49:31;100726.16;;;14.71;100.00
29461;BME280;16428;47.836;35.106;2023-04-25T05:52:00;100729.69;;;14.72;100.00
29461;BME280;16428;47.836;35.106;2023-04-25T05:54:28;100726.56;;;14.75;100.00
29461;BME280;16428;47.836;35.106;2023-04-25T05:56:56;100719.31;;;14.75;100.00
29461;BME280;16428;47.836;35.106;2023-04-25T05:59:24;100717.84;;;14.66;100.00
29461;BME280;16428;47.836;35.106;2023-04-25T06:01:52;100723.06;;;14.88;100.00
29461;BME280;16428;47.836;35.106;2023-04-25T06:04:20;100718.47;;;14.75;100.00
29461;BME280;16428;47.836;35.106;2023-04-25T06:06:47;100708.88;;;14.72;100.00
29461;BME280;16428;47.836;35.106;2023-04-25T06:09:15;100722.66;;;14.91;100.00
29461;BME280;16428;47.836;35.106;2023-04-25T06:11:43;100714.75;;;14.89;100.00
29461;BME280;16428;47.836;35.106;2023-04-25T06:14:10;100722.66;;;14.97;100.00
29461;BME280;16428;47.836;35.106;2023-04-25T06:16:38;100715.19;;;14.99;100.00
29461;BME280;16428;47.836;35.106;2023-04-25T06:19:05;100719.13;;;15.03;100.00
29461;BME280;16428;47.836;35.106;2023-04-25T06:21:33;100721.22;;;14.95;100.00
29461;BME280;16428;47.836;35.106;2023-04-25T06:24:00;100716.84;;;15.13;100.00
29461;BME280;16428;47.836;35.106;2023-04-25T06:26:28;100717.28;;;15.04;100.00
29461;BME280;16428;47.836;35.106;2023-04-25T06:28:55;100712.06;;;15.16;100.00
29461;BME280;16428;47.836;35.106;2023-04-25T06:31:23;100713.53;;;15.05;100.00
29461;BME280;16428;47.836;35.106;2023-04-25T06:33:50;100710.19;;;15.16;100.00
29461;BME280;16428;47.836;35.106;2023-04-25T06:36:18;100710.00;;;15.37;100.00
29461;BME280;16428;47.836;35.106;2023-04-25T06:38:47;100716.47;;;15.36;100.00
29461;BME280;16428;47.836;35.106;2023-04-25T06:41:15;100712.72;;;15.64;100.00
29461;BME280;16428;47.836;35.106;2023-04-25T06:43:42;100713.13;;;15.54;100.00
29461;BME280;16428;47.836;35.106;2023-04-25T06:46:10;100716.88;;;15.33;100.00
29461;BME280;16428;47.836;35.106;2023-04-25T06:48:38;100712.13;;;15.55;100.00
29461;BME280;16428;47.836;35.106;2023-04-25T06:51:05;100722.31;;;15.60;100.00
29461;BME280;16428;47.836;35.106;2023-04-25T06:53:33;100722.72;;;15.63;100.00
29461;BME280;16428;47.836;35.106;2023-04-25T06:56:00;100726.28;;;15.64;100.00
29461;BME280;16428;47.836;35.106;2023-04-25T06:58:28;100727.50;;;15.55;100.00
29461;BME280;16428;47.836;35.106;2023-04-25T07:00:55;100729.84;;;15.58;100.00
29461;BME280;16428;47.836;35.106;2023-04-25T07:03:23;100729.38;;;15.74;100.00
29461;BME280;16428;47.836;35.106;2023-04-25T07:05:51;100725.66;;;15.68;100.00
29461;BME280;16428;47.836;35.106;2023-04-25T07:08:19;100729.56;;;15.92;100.00
29461;BME280;16428;47.836;35.106;2023-04-25T07:10:47;100726.84;;;15.99;100.00
29461;BME280;16428;47.836;35.106;2023-04-25T07:13:17;100723.13;;;15.87;100.00
29461;BME280;16428;47.836;35.106;2023-04-25T07:15:44;100730.19;;;15.94;100.00
29461;BME280;16428;47.836;35.106;2023-04-25T07:18:12;100728.09;;;15.96;100.00
29461;BME280;16428;47.836;35.106;2023-04-25T07:20:39;100733.13;;;15.86;100.00
29461;BME280;16428;47.836;35.106;2023-04-25T07:23:06;100723.84;;;16.20;100.00
29461;BME280;16428;47.836;35.106;2023-04-25T07:25:34;100722.19;;;16.26;100.00
29461;BME280;16428;47.836;35.106;2023-04-25T07:28:02;100723.56;;;16.41;100.00
29461;BME280;16428;47.836;35.106;2023-04-25T07:30:30;100725.81;;;16.51;100.00
29461;BME280;16428;47.836;35.106;2023-04-25T07:32:57;100734.31;;;16.74;100.00
29461;BME280;16428;47.836;35.106;2023-04-25T07:35:25;100731.78;;;16.79;99.86
29461;BME280;16428;47.836;35.106;2023-04-25T07:37:52;100737.13;;;16.93;100.00
29461;BME280;16428;47.836;35.106;2023-04-25T07:40:20;100731.19;;;16.71;97.89
29461;BME280;16428;47.836;35.106;2023-04-25T07:42:47;100735.19;;;16.62;100.00
29461;BME280;16428;47.836;35.106;2023-04-25T07:45:15;100734.88;;;16.83;97.71
29461;BME280;16428;47.836;35.106;2023-04-25T07:47:43;100740.09;;;17.16;96.53
29461;BME280;16428;47.836;35.106;2023-04-25T07:50:10;100736.66;;;17.27;95.37
29461;BME280;16428;47.836;35.106;2023-04-25T07:52:38;100731.00;;;17.04;96.41
29461;BME280;16428;47.836;35.106;2023-04-25T07:55:05;100729.53;;;17.33;96.33
29461;BME280;16428;47.836;35.106;2023-04-25T07:57:33;100740.69;;;17.49;93.57
29461;BME280;16428;47.836;35.106;2023-04-25T08:00:00;100740.97;;;17.41;92.88
29461;BME280;16428;47.836;35.106;2023-04-25T08:02:28;100736.56;;;17.72;93.29
29461;BME280;16428;47.836;35.106;2023-04-25T08:04:56;100735.38;;;17.86;91.53
29461;BME280;16428;47.836;35.106;2023-04-25T08:07:24;100734.59;;;17.79;91.50
29461;BME280;16428;47.836;35.106;2023-04-25T08:09:54;100741.94;;;17.97;89.49
29461;BME280;16428;47.836;35.106;2023-04-25T08:12:21;100735.38;;;17.86;89.78
29461;BME280;16428;47.836;35.106;2023-04-25T08:14:49;100732.16;;;18.14;88.09
29461;BME280;16428;47.836;35.106;2023-04-25T08:17:17;100732.00;;;18.27;86.79
29461;BME280;16428;47.836;35.106;2023-04-25T08:19:45;100728.16;;;18.16;87.08
29461;BME280;16428;47.836;35.106;2023-04-25T08:22:12;100731.78;;;18.28;89.03
29461;BME280;16428;47.836;35.106;2023-04-25T08:24:41;100725.28;;;18.30;85.72
29461;BME280;16428;47.836;35.106;2023-04-25T08:27:08;100717.94;;;18.48;83.42
29461;BME280;16428;47.836;35.106;2023-04-25T08:29:35;100716.03;;;18.67;82.71
29461;BME280;16428;47.836;35.106;2023-04-25T08:32:03;100715.56;;;18.70;82.53
29461;BME280;16428;47.836;35.106;2023-04-25T08:34:31;100706.59;;;18.70;83.29
29461;BME280;16428;47.836;35.106;2023-04-25T08:36:58;100709.16;;;18.65;82.44
29461;BME280;16428;47.836;35.106;2023-04-25T08:39:26;100703.84;;;19.00;82.89
29461;BME280;16428;47.836;35.106;2023-04-25T08:41:54;100711.13;;;18.57;83.54
29461;BME280;16428;47.836;35.106;2023-04-25T08:44:22;100698.16;;;18.89;81.71
29461;BME280;16428;47.836;35.106;2023-04-25T08:46:52;100699.25;;;18.70;83.94
29461;BME280;16428;47.836;35.106;2023-04-25T08:49:19;100689.34;;;18.57;85.01
29461;BME280;16428;47.836;35.106;2023-04-25T08:51:47;100694.63;;;19.01;82.56
29461;BME280;16428;47.836;35.106;2023-04-25T08:54:14;100694.88;;;19.11;84.79
29461;BME280;16428;47.836;35.106;2023-04-25T08:57:02;100698.72;;;19.33;82.83
29461;BME280;16428;47.836;35.106;2023-04-25T08:59:32;100694.09;;;19.45;80.32
29461;BME280;16428;47.836;35.106;2023-04-25T09:02:00;100690.47;;;19.51;80.45
29461;BME280;16428;47.836;35.106;2023-04-25T09:04:30;100680.94;;;19.42;80.86
29461;BME280;16428;47.836;35.106;2023-04-25T09:06:58;100683.50;;;19.14;80.43
29461;BME280;16428;47.836;35.106;2023-04-25T09:09:25;100679.16;;;18.71;81.87
29461;BME280;16428;47.836;35.106;2023-04-25T09:11:54;100675.78;;;18.99;80.53
29461;BME280;16428;47.836;35.106;2023-04-25T09:14:23;100675.16;;;18.85;82.40
29461;BME280;16428;47.836;35.106;2023-04-25T09:16:58;100677.91;;;18.37;84.72
29461;BME280;16428;47.836;35.106;2023-04-25T09:19:35;100672.84;;;18.22;86.14
29461;BME280;16428;47.836;35.106;2023-04-25T09:22:08;100666.97;;;18.25;86.29
29461;BME280;16428;47.836;35.106;2023-04-25T09:24:37;100666.53;;;18.10;87.16
29461;BME280;16428;47.836;35.106;2023-04-25T09:27:13;100663.13;;;18.15;87.92
29461;BME280;16428;47.836;35.106;2023-04-25T09:29:44;100667.28;;;18.17;87.33
29461;BME280;16428;47.836;35.106;2023-04-25T09:32:21;100674.75;;;18.22;87.46
29461;BME280;16428;47.836;35.106;2023-04-25T09:34:51;100665.03;;;18.14;88.48
29461;BME280;16428;47.836;35.106;2023-04-25T09:37:30;100667.72;;;17.78;89.90
29461;BME280;16428;47.836;35.106;2023-04-25T09:39:59;100658.38;;;17.49;91.41
29461;BME280;16428;47.836;35.106;2023-04-25T09:42:28;100656.31;;;17.44;93.53
29461;BME280;16428;47.836;35.106;2023-04-25T09:44:59;100650.00;;;17.50;94.95
29461;BME280;16428;47.836;35.106;2023-04-25T09:47:29;100663.28;;;17.58;95.59
29461;BME280;16428;47.836;35.106;2023-04-25T09:49:56;100659.38;;;17.30;97.22
29461;BME280;16428;47.836;35.106;2023-04-25T09:52:24;100654.78;;;17.30;97.50
29461;BME280;16428;47.836;35.106;2023-04-25T09:54:52;100652.84;;;16.87;100.00
29461;BME280;16428;47.836;35.106;2023-04-25T09:57:24;100656.78;;;17.16;99.39
29461;BME280;16428;47.836;35.106;2023-04-25T09:59:53;100652.00;;;17.12;99.40
29461;BME280;16428;47.836;35.106;2023-04-25T10:02:23;100645.50;;;16.95;99.09
29461;BME280;16428;47.836;35.106;2023-04-25T10:04:54;100651.03;;;17.06;97.49
29461;BME280;16428;47.836;35.106;2023-04-25T10:07:25;100658.34;;;17.06;95.71
29461;BME280;16428;47.836;35.106;2023-04-25T10:10:04;100657.91;;;17.09;96.07
29461;BME280;16428;47.836;35.106;2023-04-25T10:12:33;100655.94;;;16.91;97.90
29461;BME280;16428;47.836;35.106;2023-04-25T10:15:02;100650.66;;;16.96;98.46
29461;BME280;16428;47.836;35.106;2023-04-25T10:17:31;100640.50;;;16.92;98.77
29461;BME280;16428;47.836;35.106;2023-04-25T10:20:02;100637.56;;;16.93;99.65
29461;BME280;16428;47.836;35.106;2023-04-25T10:22:37;100636.63;;;17.06;98.58
29461;BME280;16428;47.836;35.106;2023-04-25T10:25:06;100636.13;;;17.15;97.36
29461;BME280;16428;47.836;35.106;2023-04-25T10:27:35;100633.28;;;17.29;95.39
29461;BME280;16428;47.836;35.106;2023-04-25T10:30:07;100638.34;;;17.25;96.43
29461;BME280;16428;47.836;35.106;2023-04-25T10:32:38;100642.72;;;17.26;95.47
29461;BME280;16428;47.836;35.106;2023-04-25T10:35:16;100648.16;;;17.26;93.93
29461;BME280;16428;47.836;35.106;2023-04-25T10:38:08;100657.69;;;17.10;93.42
29461;BME280;16428;47.836;35.106;2023-04-25T10:40:37;100662.53;;;17.02;94.33
29461;BME280;16428;47.836;35.106;2023-04-25T10:46:25;100657.66;;;16.85;93.95
29461;BME280;16428;47.836;35.106;2023-04-25T10:48:55;100658.59;;;16.98;93.83
29461;BME280;16428;47.836;35.106;2023-04-25T10:51:24;100671.94;;;16.99;93.86
29461;BME280;16428;47.836;35.106;2023-04-25T10:56:25;100671.41;;;17.40;94.07
29461;BME280;16428;47.836;35.106;2023-04-25T10:59:10;100670.13;;;17.68;91.86
29461;BME280;16428;47.836;35.106;2023-04-25T11:01:45;100668.63;;;17.90;90.80
29461;BME280;16428;47.836;35.106;2023-04-25T11:04:31;100674.47;;;18.12;91.86
29461;BME280;16428;47.836;35.106;2023-04-25T11:09:35;100669.22;;;18.28;90.04
29461;BME280;16428;47.836;35.106;2023-04-25T11:12:07;100662.22;;;18.51;89.95
29461;BME280;16428;47.836;35.106;2023-04-25T11:14:35;100653.34;;;18.62;87.24
29461;BME280;16428;47.836;35.106;2023-04-25T11:17:03;100655.13;;;18.50;89.52
29461;BME280;16428;47.836;35.106;2023-04-25T11:19:30;100657.56;;;18.88;86.69
29461;BME280;16428;47.836;35.106;2023-04-25T11:22:00;100652.47;;;18.91;84.19
29461;BME280;16428;47.836;35.106;2023-04-25T11:24:29;100653.78;;;19.12;84.26
29461;BME280;16428;47.836;35.106;2023-04-25T11:27:04;100665.56;;;19.36;81.20
29461;BME280;16428;47.836;35.106;2023-04-25T11:29:34;100654.31;;;19.44;80.01
29461;BME280;16428;47.836;35.106;2023-04-25T11:32:02;100656.06;;;19.15;81.45
29461;BME280;16428;47.836;35.106;2023-04-25T11:34:31;100659.16;;;19.42;79.17
29461;BME280;16428;47.836;35.106;2023-04-25T11:37:02;100657.03;;;19.44;78.88
29461;BME280;16428;47.836;35.106;2023-04-25T11:39:30;100649.59;;;19.40;77.20
29461;BME280;16428;47.836;35.106;2023-04-25T11:41:58;100651.88;;;19.54;76.89
29461;BME280;16428;47.836;35.106;2023-04-25T11:44:28;100655.38;;;19.20;77.23
29461;BME280;16428;47.836;35.106;2023-04-25T11:46:55;100657.72;;;19.05;78.33
29461;BME280;16428;47.836;35.106;2023-04-25T11:49:22;100647.69;;;18.75;80.31
29461;BME280;16428;47.836;35.106;2023-04-25T11:51:51;100645.75;;;18.64;83.31
29461;BME280;16428;47.836;35.106;2023-04-25T11:54:19;100656.13;;;18.97;82.61
29461;BME280;16428;47.836;35.106;2023-04-25T11:56:46;100636.47;;;18.95;80.00
29461;BME280;16428;47.836;35.106;2023-04-25T11:59:14;100653.25;;;19.22;76.24
29461;BME280;16428;47.836;35.106;2023-04-25T12:01:49;100642.06;;;19.12;77.81
29461;BME280;16428;47.836;35.106;2023-04-25T12:04:22;100639.25;;;19.30;76.51
29461;BME280;16428;47.836;35.106;2023-04-25T12:06:53;100632.19;;;19.52;76.36
29461;BME280;16428;47.836;35.106;2023-04-25T12:09:29;100641.25;;;20.45;73.96
29461;BME280;16428;47.836;35.106;2023-04-25T12:11:59;100633.94;;;20.62;70.31
29461;BME280;16428;47.836;35.106;2023-04-25T12:14:33;100632.56;;;21.10;69.41
29461;BME280;16428;47.836;35.106;2023-04-25T12:17:03;100627.38;;;20.91;69.15
29461;BME280;16428;47.836;35.106;2023-04-25T12:19:36;100616.59;;;20.85;68.92
29461;BME280;16428;47.836;35.106;2023-04-25T12:22:19;100613.94;;;20.73;71.34
29461;BME280;16428;47.836;35.106;2023-04-25T12:24:47;100610.13;;;20.57;68.65
29461;BME280;16428;47.836;35.106;2023-04-25T12:27:16;100611.22;;;20.16;68.56
29461;BME280;16428;47.836;35.106;2023-04-25T12:29:54;100606.09;;;19.80;69.02
29461;BME280;16428;47.836;35.106;2023-04-25T12:32:23;100594.28;;;19.62;71.64
29461;BME280;16428;47.836;35.106;2023-04-25T12:34:50;100604.44;;;20.19;68.29
29461;BME280;16428;47.836;35.106;2023-04-25T12:37:18;100592.69;;;21.25;64.71
29461;BME280;16428;47.836;35.106;2023-04-25T12:39:45;100605.69;;;21.73;62.44
29461;BME280;16428;47.836;35.106;2023-04-25T12:42:13;100593.53;;;21.86;62.29
29461;BME280;16428;47.836;35.106;2023-04-25T12:44:40;100600.41;;;22.32;58.50
29461;BME280;16428;47.836;35.106;2023-04-25T12:47:08;100589.88;;;23.37;50.30
29461;BME280;16428;47.836;35.106;2023-04-25T12:49:36;100582.56;;;24.15;48.26